sensor_id;sensor_type;location;lat;lon;timestamp;temperature;humidity
2913;DHT22;1466;48.778;9.166;2023-09-19T00:02:02;20.50;99.90
2913;DHT22;1466;48.778;9.166;2023-09-19T00:04:32;20.40;99.90
2913;DHT22;1466;48.778;9.166;2023-09-19T00:06:58;20.40;99.90
2913;DHT22;1466;48.778;9.166;2023-09-19T00:09:24;20.40;99.90
2913;DHT22;1466;48.778;9.166;2023-09-19T00:11:53;20.40;99.90
2913;DHT22;1466;48.778;9.166;2023-09-19T00:14:18;20.40;99.90
2913;DHT22;1466;48.778;9.166;2023-09-19T00:16:44;20.40;99.90
2913;DHT22;1466;48.778;9.166;2023-09-19T00:19:12;20.30;99.90
2913;DHT22;1466;48.778;9.166;2023-09-19T00:21:39;20.30;99.90
2913;DHT22;1466;48.778;9.166;2023-09-19T00:24:06;20.40;99.90
2913;DHT22;1466;48.778;9.166;2023-09-19T00:26:32;20.30;99.90
2913;DHT22;1466;48.778;9.166;2023-09-19T00:28:59;20.30;99.90
2913;DHT22;1466;48.778;9.166;2023-09-19T00:31:30;20.30;99.90
2913;DHT22;1466;48.778;9.166;2023-09-19T00:33:56;20.30;99.90
2913;DHT22;1466;48.778;9.166;2023-09-19T00:36:27;20.30;99.90
2913;DHT22;1466;48.778;9.166;2023-09-19T00:38:54;20.30;99.90
2913;DHT22;1466;48.778;9.166;2023-09-19T00:41:20;20.20;99.90
2913;DHT22;1466;48.778;9.166;2023-09-19T00:43:46;20.20;99.90
2913;DHT22;1466;48.778;9.166;2023-09-19T00:46:16;20.30;99.90
2913;DHT22;1466;48.778;9.166;2023-09-19T00:48:42;20.20;99.90
2913;DHT22;1466;48.778;9.166;2023-09-19T00:51:10;20.20;99.90
2913;DHT22;1466;48.778;9.166;2023-09-19T00:53:36;20.20;99.90
2913;DHT22;1466;48.778;9.166;2023-09-19T00:56:03;20.20;99.90
2913;DHT22;1466;48.778;9.166;2023-09-19T00:58:34;20.10;99.90
2913;DHT22;1466;48.778;9.166;2023-09-19T01:01:01;20.20;99.90
2913;DHT22;1466;48.778;9.166;2023-09-19T01:03:28;20.20;99.90
2913;DHT22;1466;48.778;9.166;2023-09-19T01:05:54;20.20;99.90
2913;DHT22;1466;48.778;9.166;2023-09-19T01:08:20;20.10;99.90
2913;DHT22;1466;48.778;9.166;2023-09-19T01:10:52;20.10;99.90
2913;DHT22;1466;48.778;9.166;2023-09-19T01:13:43;20.10;99.90
2913;DHT22;1466;48.778;9.166;2023-09-19T01:16:35;20.10;99.90
2913;DHT22;1466;48.778;9.166;2023-09-19T01:22:05;20.10;99.90
2913;DHT22;1466;48.778;9.166;2023-09-19T01:30:10;20.10;99.90
2913;DHT22;1466;48.778;9.166;2023-09-19T01:32:38;20.10;99.90
2913;DHT22;1466;48.778;9.166;2023-09-19T01:35:04;20.10;99.90
2913;DHT22;1466;48.778;9.166;2023-09-19T01:37:30;20.10;99.90
2913;DHT22;1466;48.778;9.166;2023-09-19T01:39:59;20.10;99.90
2913;DHT22;1466;48.778;9.166;2023-09-19T01:43:06;20.10;99.90
2913;DHT22;1466;48.778;9.166;2023-09-19T01:48:25;20.10;99.90
2913;DHT22;1466;48.778;9.166;2023-09-19T01:51:00;20.10;99.90
2913;DHT22;1466;48.778;9.166;2023-09-19T01:53:34;20.20;99.90
2913;DHT22;1466;48.778;9.166;2023-09-19T01:56:01;20.10;99.90
2913;DHT22;1466;48.778;9.166;2023-09-19T01:58:37;20.20;99.90
2913;DHT22;1466;48.778;9.166;2023-09-19T02:01:05;20.20;99.90
2913;DHT22;1466;48.778;9.166;2023-09-19T02:03:34;20.20;99.90
2913;DHT22;1466;48.778;9.166;2023-09-19T02:06:00;20.20;99.90
2913;DHT22;1466;48.778;9.166;2023-09-19T02:08:26;20.20;99.90
2913;DHT22;1466;48.778;9.166;2023-09-19T02:10:52;20.10;99.90
2913;DHT22;1466;48.778;9.166;2023-09-19T02:13:22;20.20;99.90
2913;DHT22;1466;48.778;9.166;2023-09-19T02:15:50;20.20;99.90
2913;DHT22;1466;48.778;9.166;2023-09-19T02:18:15;20.20;99.90
2913;DHT22;1466;48.778;9.166;2023-09-19T02:20:42;20.10;99.90
2913;DHT22;1466;48.778;9.166;2023-09-19T02:23:09;20.10;99.90
2913;DHT22;1466;48.778;9.166;2023-09-19T02:25:35;20.10;99.90
2913;DHT22;1466;48.778;9.166;2023-09-19T02:28:01;20.10;99.90
2913;DHT22;1466;48.778;9.166;2023-09-19T02:30:29;20.10;99.90
2913;DHT22;1466;48.778;9.166;2023-09-19T02:32:55;20.10;99.90
2913;DHT22;1466;48.778;9.166;2023-09-19T02:35:21;20.20;99.90
2913;DHT22;1466;48.778;9.166;2023-09-19T02:37:48;20.10;99.90
2913;DHT22;1466;48.778;9.166;2023-09-19T02:40:14;20.10;99.90
2913;DHT22;1466;48.778;9.166;2023-09-19T02:42:53;20.00;99.90
2913;DHT22;1466;48.778;9.166;2023-09-19T02:45:20;20.00;99.90
2913;DHT22;1466;48.778;9.166;2023-09-19T02:47:47;19.90;99.90
2913;DHT22;1466;48.778;9.166;2023-09-19T02:50:13;19.80;99.90
2913;DHT22;1466;48.778;9.166;2023-09-19T02:52:42;19.80;99.90
2913;DHT22;1466;48.778;9.166;2023-09-19T02:55:14;19.70;99.90
2913;DHT22;1466;48.778;9.166;2023-09-19T02:57:53;19.70;99.90
2913;DHT22;1466;48.778;9.166;2023-09-19T03:00:22;19.80;99.90
2913;DHT22;1466;48.778;9.166;2023-09-19T03:02:53;19.70;99.90
2913;DHT22;1466;48.778;9.166;2023-09-19T03:05:20;19.80;99.90
2913;DHT22;1466;48.778;9.166;2023-09-19T03:07:47;19.80;99.90
2913;DHT22;1466;48.778;9.166;2023-09-19T03:10:22;19.80;99.90
2913;DHT22;1466;48.778;9.166;2023-09-19T03:12:48;19.80;99.90
2913;DHT22;1466;48.778;9.166;2023-09-19T03:15:14;19.90;99.90
2913;DHT22;1466;48.778;9.166;2023-09-19T03:17:44;19.90;99.90
2913;DHT22;1466;48.778;9.166;2023-09-19T03:20:11;19.80;99.90
2913;DHT22;1466;48.778;9.166;2023-09-19T03:22:38;19.80;99.90
2913;DHT22;1466;48.778;9.166;2023-09-19T03:25:06;19.80;99.90
2913;DHT22;1466;48.778;9.166;2023-09-19T03:27:35;19.80;99.90
2913;DHT22;1466;48.778;9.166;2023-09-19T03:30:00;19.80;99.90
2913;DHT22;1466;48.778;9.166;2023-09-19T03:32:26;19.80;99.90
2913;DHT22;1466;48.778;9.166;2023-09-19T03:34:52;19.70;99.90
2913;DHT22;1466;48.778;9.166;2023-09-19T03:37:17;19.70;99.90
2913;DHT22;1466;48.778;9.166;2023-09-19T03:39:43;19.70;99.90
2913;DHT22;1466;48.778;9.166;2023-09-19T03:42:09;19.70;99.90
2913;DHT22;1466;48.778;9.166;2023-09-19T03:44:35;19.70;99.90
2913;DHT22;1466;48.778;9.166;2023-09-19T03:47:00;19.70;99.90
2913;DHT22;1466;48.778;9.166;2023-09-19T03:49:26;19.70;99.90
2913;DHT22;1466;48.778;9.166;2023-09-19T03:51:51;19.70;99.90
2913;DHT22;1466;48.778;9.166;2023-09-19T03:54:17;19.80;99.90
2913;DHT22;1466;48.778;9.166;2023-09-19T03:56:44;19.80;99.90
2913;DHT22;1466;48.778;9.166;2023-09-19T03:59:11;19.80;99.90
2913;DHT22;1466;48.778;9.166;2023-09-19T04:01:37;19.80;99.90
2913;DHT22;1466;48.778;9.166;2023-09-19T04:04:03;19.80;99.90
2913;DHT22;1466;48.778;9.166;2023-09-19T04:06:35;19.90;99.90
2913;DHT22;1466;48.778;9.166;2023-09-19T04:09:01;19.80;99.90
2913;DHT22;1466;48.778;9.166;2023-09-19T04:11:29;19.80;99.90
2913;DHT22;1466;48.778;9.166;2023-09-19T04:13:55;19.80;99.90
2913;DHT22;1466;48.778;9.166;2023-09-19T04:16:20;19.80;99.90
2913;DHT22;1466;48.778;9.166;2023-09-19T04:18:46;19.80;99.90
2913;DHT22;1466;48.778;9.166;2023-09-19T04:21:12;19.80;99.90
2913;DHT22;1466;48.778;9.166;2023-09-19T04:23:37;19.90;99.90
2913;DHT22;1466;48.778;9.166;2023-09-19T04:26:03;19.80;99.90
2913;DHT22;1466;48.778;9.166;2023-09-19T04:28:31;19.90;99.90
2913;DHT22;1466;48.778;9.166;2023-09-19T04:30:59;19.90;99.90
2913;DHT22;1466;48.778;9.166;2023-09-19T04:33:25;19.80;99.90
2913;DHT22;1466;48.778;9.166;2023-09-19T04:35:52;19.80;99.90
2913;DHT22;1466;48.778;9.166;2023-09-19T04:38:18;19.90;99.90
2913;DHT22;1466;48.778;9.166;2023-09-19T04:40:45;19.90;99.90
2913;DHT22;1466;48.778;9.166;2023-09-19T04:43:10;19.90;99.90
2913;DHT22;1466;48.778;9.166;2023-09-19T04:45:38;19.90;99.90
2913;DHT22;1466;48.778;9.166;2023-09-19T04:48:05;19.80;99.90
2913;DHT22;1466;48.778;9.166;2023-09-19T04:50:32;19.80;99.90
2913;DHT22;1466;48.778;9.166;2023-09-19T04:52:59;19.80;99.90
2913;DHT22;1466;48.778;9.166;2023-09-19T04:55:25;19.80;99.90
2913;DHT22;1466;48.778;9.166;2023-09-19T04:57:51;19.80;99.90
2913;DHT22;1466;48.778;9.166;2023-09-19T05:00:21;19.70;99.90
2913;DHT22;1466;48.778;9.166;2023-09-19T05:02:58;19.80;99.90
2913;DHT22;1466;48.778;9.166;2023-09-19T05:05:24;19.80;99.90
2913;DHT22;1466;48.778;9.166;2023-09-19T05:07:51;19.70;99.90
2913;DHT22;1466;48.778;9.166;2023-09-19T05:10:19;19.60;99.90
2913;DHT22;1466;48.778;9.166;2023-09-19T05:12:45;19.60;99.90
2913;DHT22;1466;48.778;9.166;2023-09-19T05:15:13;19.70;99.90
2913;DHT22;1466;48.778;9.166;2023-09-19T05:17:51;19.60;99.90
2913;DHT22;1466;48.778;9.166;2023-09-19T05:20:17;19.50;99.90
2913;DHT22;1466;48.778;9.166;2023-09-19T05:23:05;19.40;99.90
2913;DHT22;1466;48.778;9.166;2023-09-19T05:25:33;19.40;99.90
2913;DHT22;1466;48.778;9.166;2023-09-19T05:28:03;19.40;99.90
2913;DHT22;1466;48.778;9.166;2023-09-19T05:30:29;19.40;99.90
2913;DHT22;1466;48.778;9.166;2023-09-19T05:32:55;19.30;99.90
2913;DHT22;1466;48.778;9.166;2023-09-19T05:35:21;19.30;99.90
2913;DHT22;1466;48.778;9.166;2023-09-19T05:37:48;19.20;99.90
2913;DHT22;1466;48.778;9.166;2023-09-19T05:40:19;19.20;99.90
2913;DHT22;1466;48.778;9.166;2023-09-19T05:42:45;19.20;99.90
2913;DHT22;1466;48.778;9.166;2023-09-19T05:45:11;19.00;99.90
2913;DHT22;1466;48.778;9.166;2023-09-19T05:47:38;19.00;99.90
2913;DHT22;1466;48.778;9.166;2023-09-19T05:50:06;18.90;99.90
2913;DHT22;1466;48.778;9.166;2023-09-19T05:52:35;18.80;99.90
2913;DHT22;1466;48.778;9.166;2023-09-19T05:55:00;18.50;99.90
2913;DHT22;1466;48.778;9.166;2023-09-19T05:57:26;18.30;99.90
2913;DHT22;1466;48.778;9.166;2023-09-19T05:59:53;18.20;99.90
2913;DHT22;1466;48.778;9.166;2023-09-19T06:02:18;18.10;99.90
2913;DHT22;1466;48.778;9.166;2023-09-19T06:04:45;18.00;99.90
2913;DHT22;1466;48.778;9.166;2023-09-19T06:07:10;18.00;99.90
2913;DHT22;1466;48.778;9.166;2023-09-19T06:09:36;18.10;99.90
2913;DHT22;1466;48.778;9.166;2023-09-19T06:12:02;18.20;99.90
2913;DHT22;1466;48.778;9.166;2023-09-19T06:14:29;18.30;99.90
2913;DHT22;1466;48.778;9.166;2023-09-19T06:16:54;18.30;99.90
2913;DHT22;1466;48.778;9.166;2023-09-19T06:19:20;18.40;99.90
2913;DHT22;1466;48.778;9.166;2023-09-19T06:21:48;18.40;99.90
2913;DHT22;1466;48.778;9.166;2023-09-19T06:24:14;18.40;99.90
2913;DHT22;1466;48.778;9.166;2023-09-19T06:26:40;18.30;99.90
2913;DHT22;1466;48.778;9.166;2023-09-19T06:29:06;18.30;99.90
2913;DHT22;1466;48.778;9.166;2023-09-19T06:31:35;18.30;99.90
2913;DHT22;1466;48.778;9.166;2023-09-19T06:34:00;18.30;99.90
2913;DHT22;1466;48.778;9.166;2023-09-19T06:36:26;18.30;99.90
2913;DHT22;1466;48.778;9.166;2023-09-19T06:38:52;18.40;99.90
2913;DHT22;1466;48.778;9.166;2023-09-19T06:41:18;18.50;99.90
2913;DHT22;1466;48.778;9.166;2023-09-19T06:43:43;18.60;99.90
2913;DHT22;1466;48.778;9.166;2023-09-19T06:46:09;18.70;99.90
2913;DHT22;1466;48.778;9.166;2023-09-19T06:48:35;18.80;99.90
2913;DHT22;1466;48.778;9.166;2023-09-19T06:51:01;18.80;99.90
2913;DHT22;1466;48.778;9.166;2023-09-19T06:53:33;18.90;99.90
2913;DHT22;1466;48.778;9.166;2023-09-19T06:56:01;18.90;99.90
2913;DHT22;1466;48.778;9.166;2023-09-19T06:58:27;18.90;99.90
2913;DHT22;1466;48.778;9.166;2023-09-19T07:00:52;18.90;99.90
2913;DHT22;1466;48.778;9.166;2023-09-19T07:03:19;19.00;99.90
2913;DHT22;1466;48.778;9.166;2023-09-19T07:05:47;19.10;99.90
2913;DHT22;1466;48.778;9.166;2023-09-19T07:08:13;19.20;99.90
2913;DHT22;1466;48.778;9.166;2023-09-19T07:10:41;19.40;99.90
2913;DHT22;1466;48.778;9.166;2023-09-19T07:13:08;19.40;99.90
2913;DHT22;1466;48.778;9.166;2023-09-19T07:15:38;19.30;99.90
2913;DHT22;1466;48.778;9.166;2023-09-19T07:18:15;19.40;99.90
2913;DHT22;1466;48.778;9.166;2023-09-19T07:20:42;19.40;99.90
2913;DHT22;1466;48.778;9.166;2023-09-19T07:23:18;19.50;99.90
2913;DHT22;1466;48.778;9.166;2023-09-19T07:25:44;19.50;99.90
2913;DHT22;1466;48.778;9.166;2023-09-19T07:28:11;19.60;99.90
2913;DHT22;1466;48.778;9.166;2023-09-19T07:30:37;19.50;99.90
2913;DHT22;1466;48.778;9.166;2023-09-19T07:33:03;19.50;99.90
2913;DHT22;1466;48.778;9.166;2023-09-19T07:35:30;19.50;99.90
2913;DHT22;1466;48.778;9.166;2023-09-19T07:37:56;19.50;99.90
2913;DHT22;1466;48.778;9.166;2023-09-19T07:40:24;19.60;99.90
2913;DHT22;1466;48.778;9.166;2023-09-19T07:42:52;19.70;99.90
2913;DHT22;1466;48.778;9.166;2023-09-19T07:45:18;19.70;99.90
2913;DHT22;1466;48.778;9.166;2023-09-19T07:47:47;19.80;99.90
2913;DHT22;1466;48.778;9.166;2023-09-19T07:50:14;19.80;99.90
2913;DHT22;1466;48.778;9.166;2023-09-19T07:52:41;19.90;99.90
2913;DHT22;1466;48.778;9.166;2023-09-19T07:55:08;19.90;99.90
2913;DHT22;1466;48.778;9.166;2023-09-19T07:57:35;19.90;99.90
2913;DHT22;1466;48.778;9.166;2023-09-19T08:00:01;19.90;99.90
2913;DHT22;1466;48.778;9.166;2023-09-19T08:02:33;19.80;99.90
2913;DHT22;1466;48.778;9.166;2023-09-19T08:04:59;19.90;99.90
2913;DHT22;1466;48.778;9.166;2023-09-19T08:07:25;19.90;99.90
2913;DHT22;1466;48.778;9.166;2023-09-19T08:09:51;20.00;99.90
2913;DHT22;1466;48.778;9.166;2023-09-19T08:12:17;20.10;99.90
2913;DHT22;1466;48.778;9.166;2023-09-19T08:14:42;20.30;99.90
2913;DHT22;1466;48.778;9.166;2023-09-19T08:17:09;20.40;99.90
2913;DHT22;1466;48.778;9.166;2023-09-19T08:19:34;20.40;99.90
2913;DHT22;1466;48.778;9.166;2023-09-19T08:22:01;20.50;99.90
2913;DHT22;1466;48.778;9.166;2023-09-19T08:24:29;20.60;99.90
2913;DHT22;1466;48.778;9.166;2023-09-19T08:26:55;20.60;99.90
2913;DHT22;1466;48.778;9.166;2023-09-19T08:29:22;20.60;99.90
2913;DHT22;1466;48.778;9.166;2023-09-19T08:31:54;20.70;99.90
2913;DHT22;1466;48.778;9.166;2023-09-19T08:34:19;20.80;99.90
2913;DHT22;1466;48.778;9.166;2023-09-19T08:36:46;20.90;99.90
2913;DHT22;1466;48.778;9.166;2023-09-19T08:39:13;20.90;99.90
2913;DHT22;1466;48.778;9.166;2023-09-19T08:41:39;21.00;99.90
2913;DHT22;1466;48.778;9.166;2023-09-19T08:44:05;21.00;99.90
2913;DHT22;1466;48.778;9.166;2023-09-19T08:46:31;21.00;99.90
2913;DHT22;1466;48.778;9.166;2023-09-19T08:49:19;21.20;99.90
2913;DHT22;1466;48.778;9.166;2023-09-19T08:51:51;21.20;99.90
2913;DHT22;1466;48.778;9.166;2023-09-19T08:54:25;21.30;99.90
2913;DHT22;1466;48.778;9.166;2023-09-19T08:56:55;21.40;99.90
2913;DHT22;1466;48.778;9.166;2023-09-19T08:59:22;21.50;99.90
2913;DHT22;1466;48.778;9.166;2023-09-19T09:01:53;21.70;99.90
2913;DHT22;1466;48.778;9.166;2023-09-19T09:04:20;22.00;99.90
2913;DHT22;1466;48.778;9.166;2023-09-19T09:06:49;22.50;99.90
2913;DHT22;1466;48.778;9.166;2023-09-19T09:09:18;22.90;99.90
2913;DHT22;1466;48.778;9.166;2023-09-19T09:11:45;23.20;99.90
2913;DHT22;1466;48.778;9.166;2023-09-19T09:14:13;23.50;99.90
2913;DHT22;1466;48.778;9.166;2023-09-19T09:16:39;23.60;99.40
2913;DHT22;1466;48.778;9.166;2023-09-19T09:19:05;23.70;98.80
2913;DHT22;1466;48.778;9.166;2023-09-19T09:21:30;23.80;98.70
2913;DHT22;1466;48.778;9.166;2023-09-19T09:24:30;23.80;97.30
2913;DHT22;1466;48.778;9.166;2023-09-19T09:26:59;23.90;97.20
2913;DHT22;1466;48.778;9.166;2023-09-19T09:29:44;23.80;96.00
2913;DHT22;1466;48.778;9.166;2023-09-19T09:32:26;23.90;95.70
2913;DHT22;1466;48.778;9.166;2023-09-19T09:34:59;23.90;94.90
2913;DHT22;1466;48.778;9.166;2023-09-19T09:37:25;23.90;94.10
2913;DHT22;1466;48.778;9.166;2023-09-19T09:39:58;23.80;93.30
2913;DHT22;1466;48.778;9.166;2023-09-19T09:42:36;23.80;93.20
2913;DHT22;1466;48.778;9.166;2023-09-19T09:47:43;24.00;93.10
2913;DHT22;1466;48.778;9.166;2023-09-19T09:50:33;23.90;92.20
2913;DHT22;1466;48.778;9.166;2023-09-19T09:53:21;23.70;92.40
2913;DHT22;1466;48.778;9.166;2023-09-19T09:58:36;23.40;92.40
2913;DHT22;1466;48.778;9.166;2023-09-19T10:01:03;23.30;92.10
2913;DHT22;1466;48.778;9.166;2023-09-19T10:03:41;23.20;91.90
2913;DHT22;1466;48.778;9.166;2023-09-19T10:06:11;23.10;91.90
2913;DHT22;1466;48.778;9.166;2023-09-19T10:09:07;23.20;92.10
2913;DHT22;1466;48.778;9.166;2023-09-19T10:11:40;23.20;92.10
2913;DHT22;1466;48.778;9.166;2023-09-19T10:14:09;23.20;92.20
2913;DHT22;1466;48.778;9.166;2023-09-19T10:16:36;23.20;92.40
2913;DHT22;1466;48.778;9.166;2023-09-19T10:19:08;23.20;92.20
2913;DHT22;1466;48.778;9.166;2023-09-19T10:21:36;23.10;91.50
2913;DHT22;1466;48.778;9.166;2023-09-19T10:24:03;23.00;91.20
2913;DHT22;1466;48.778;9.166;2023-09-19T10:26:34;22.90;90.80
2913;DHT22;1466;48.778;9.166;2023-09-19T10:29:01;22.70;91.20
2913;DHT22;1466;48.778;9.166;2023-09-19T10:31:29;22.70;91.60
2913;DHT22;1466;48.778;9.166;2023-09-19T10:34:02;22.70;91.80
2913;DHT22;1466;48.778;9.166;2023-09-19T10:36:32;23.00;92.00
2913;DHT22;1466;48.778;9.166;2023-09-19T10:39:03;23.00;91.90
2913;DHT22;1466;48.778;9.166;2023-09-19T10:41:34;22.90;91.90
2913;DHT22;1466;48.778;9.166;2023-09-19T10:44:03;22.90;91.90
2913;DHT22;1466;48.778;9.166;2023-09-19T10:46:34;23.00;91.70
2913;DHT22;1466;48.778;9.166;2023-09-19T10:49:02;23.00;91.60
2913;DHT22;1466;48.778;9.166;2023-09-19T10:51:38;23.30;91.40
2913;DHT22;1466;48.778;9.166;2023-09-19T10:54:11;23.50;90.80
2913;DHT22;1466;48.778;9.166;2023-09-19T10:56:42;23.60;90.80
2913;DHT22;1466;48.778;9.166;2023-09-19T10:59:11;23.70;90.30
2913;DHT22;1466;48.778;9.166;2023-09-19T11:01:49;23.80;89.90
2913;DHT22;1466;48.778;9.166;2023-09-19T11:07:14;23.70;89.90
2913;DHT22;1466;48.778;9.166;2023-09-19T11:09:54;23.50;90.10
2913;DHT22;1466;48.778;9.166;2023-09-19T11:15:02;23.10;90.60
2913;DHT22;1466;48.778;9.166;2023-09-19T11:17:37;23.10;90.80
2913;DHT22;1466;48.778;9.166;2023-09-19T11:30:38;23.30;90.00
2913;DHT22;1466;48.778;9.166;2023-09-19T11:36:03;23.30;88.50
2913;DHT22;1466;48.778;9.166;2023-09-19T11:46:34;23.50;84.90
2913;DHT22;1466;48.778;9.166;2023-09-19T11:49:07;23.50;84.10
2913;DHT22;1466;48.778;9.166;2023-09-19T11:51:40;23.60;83.70
2913;DHT22;1466;48.778;9.166;2023-09-19T11:54:11;23.70;83.50
2913;DHT22;1466;48.778;9.166;2023-09-19T11:56:44;23.70;83.10
2913;DHT22;1466;48.778;9.166;2023-09-19T11:59:11;23.80;83.40
2913;DHT22;1466;48.778;9.166;2023-09-19T12:01:38;23.90;83.80
2913;DHT22;1466;48.778;9.166;2023-09-19T12:04:11;23.90;82.90
2913;DHT22;1466;48.778;9.166;2023-09-19T12:06:37;23.70;82.50
2913;DHT22;1466;48.778;9.166;2023-09-19T12:09:12;23.70;82.30
2913;DHT22;1466;48.778;9.166;2023-09-19T12:11:42;23.60;82.10
2913;DHT22;1466;48.778;9.166;2023-09-19T12:14:10;23.70;83.10
2913;DHT22;1466;48.778;9.166;2023-09-19T12:16:35;23.70;83.40
2913;DHT22;1466;48.778;9.166;2023-09-19T12:19:21;23.90;83.70
2913;DHT22;1466;48.778;9.166;2023-09-19T12:22:01;24.00;83.70
2913;DHT22;1466;48.778;9.166;2023-09-19T12:24:30;24.10;83.70
2913;DHT22;1466;48.778;9.166;2023-09-19T12:27:04;24.00;83.40
2913;DHT22;1466;48.778;9.166;2023-09-19T12:29:31;24.00;83.60
2913;DHT22;1466;48.778;9.166;2023-09-19T12:31:59;23.90;83.30
2913;DHT22;1466;48.778;9.166;2023-09-19T12:34:32;23.80;83.70
2913;DHT22;1466;48.778;9.166;2023-09-19T12:39:42;23.90;84.00
2913;DHT22;1466;48.778;9.166;2023-09-19T12:42:11;24.00;84.10
2913;DHT22;1466;48.778;9.166;2023-09-19T12:44:45;24.20;83.30
2913;DHT22;1466;48.778;9.166;2023-09-19T12:47:20;24.30;83.20
2913;DHT22;1466;48.778;9.166;2023-09-19T12:50:07;24.40;83.60
2913;DHT22;1466;48.778;9.166;2023-09-19T12:52:39;24.50;83.10
2913;DHT22;1466;48.778;9.166;2023-09-19T12:55:05;24.60;81.40
2913;DHT22;1466;48.778;9.166;2023-09-19T12:57:33;24.50;81.00
2913;DHT22;1466;48.778;9.166;2023-09-19T13:00:03;24.60;81.60
2913;DHT22;1466;48.778;9.166;2023-09-19T13:02:35;24.60;81.70
2913;DHT22;1466;48.778;9.166;2023-09-19T13:05:00;24.60;81.80
2913;DHT22;1466;48.778;9.166;2023-09-19T13:07:43;24.50;81.70
2913;DHT22;1466;48.778;9.166;2023-09-19T13:10:12;24.40;81.50
2913;DHT22;1466;48.778;9.166;2023-09-19T13:12:42;24.30;81.90
2913;DHT22;1466;48.778;9.166;2023-09-19T13:15:13;24.20;81.90
2913;DHT22;1466;48.778;9.166;2023-09-19T13:17:49;24.10;81.50
2913;DHT22;1466;48.778;9.166;2023-09-19T13:20:25;24.00;81.70
2913;DHT22;1466;48.778;9.166;2023-09-19T13:22:54;24.00;82.30
2913;DHT22;1466;48.778;9.166;2023-09-19T13:25:25;24.00;82.10
2913;DHT22;1466;48.778;9.166;2023-09-19T13:27:55;24.20;82.00
2913;DHT22;1466;48.778;9.166;2023-09-19T13:30:26;24.30;82.10
2913;DHT22;1466;48.778;9.166;2023-09-19T13:33:04;24.50;82.20
2913;DHT22;1466;48.778;9.166;2023-09-19T13:35:30;24.60;81.70
2913;DHT22;1466;48.778;9.166;2023-09-19T13:37:56;24.60;80.70
2913;DHT22;1466;48.778;9.166;2023-09-19T13:40:22;24.60;80.90
2913;DHT22;1466;48.778;9.166;2023-09-19T13:42:47;24.60;81.20
2913;DHT22;1466;48.778;9.166;2023-09-19T13:45:13;24.70;81.60
2913;DHT22;1466;48.778;9.166;2023-09-19T13:47:42;24.80;82.20
2913;DHT22;1466;48.778;9.166;2023-09-19T13:50:08;24.80;82.60
2913;DHT22;1466;48.778;9.166;2023-09-19T13:52:34;24.80;82.90
2913;DHT22;1466;48.778;9.166;2023-09-19T13:55:00;24.80;82.70
2913;DHT22;1466;48.778;9.166;2023-09-19T13:57:26;24.90;82.70
2913;DHT22;1466;48.778;9.166;2023-09-19T13:59:55;25.00;80.20
2913;DHT22;1466;48.778;9.166;2023-09-19T14:02:21;25.00;79.40
2913;DHT22;1466;48.778;9.166;2023-09-19T14:04:53;25.00;79.60
2913;DHT22;1466;48.778;9.166;2023-09-19T14:07:19;25.00;79.70
2913;DHT22;1466;48.778;9.166;2023-09-19T14:09:45;25.00;79.70
2913;DHT22;1466;48.778;9.166;2023-09-19T14:12:11;24.90;79.20
2913;DHT22;1466;48.778;9.166;2023-09-19T14:14:37;24.70;79.20
2913;DHT22;1466;48.778;9.166;2023-09-19T14:17:04;24.60;79.40
2913;DHT22;1466;48.778;9.166;2023-09-19T14:19:30;24.70;80.00
2913;DHT22;1466;48.778;9.166;2023-09-19T14:21:55;24.70;79.70
2913;DHT22;1466;48.778;9.166;2023-09-19T14:24:21;24.70;79.80
2913;DHT22;1466;48.778;9.166;2023-09-19T14:26:47;24.70;79.50
2913;DHT22;1466;48.778;9.166;2023-09-19T14:29:14;24.80;79.10
2913;DHT22;1466;48.778;9.166;2023-09-19T14:31:40;24.90;79.50
2913;DHT22;1466;48.778;9.166;2023-09-19T14:34:06;24.80;78.40
2913;DHT22;1466;48.778;9.166;2023-09-19T14:36:32;24.70;78.10
2913;DHT22;1466;48.778;9.166;2023-09-19T14:38:59;24.70;78.10
2913;DHT22;1466;48.778;9.166;2023-09-19T14:41:24;24.50;78.20
2913;DHT22;1466;48.778;9.166;2023-09-19T14:43:54;24.50;78.20
2913;DHT22;1466;48.778;9.166;2023-09-19T14:46:21;24.50;77.00
2913;DHT22;1466;48.778;9.166;2023-09-19T14:48:46;24.60;77.20
2913;DHT22;1466;48.778;9.166;2023-09-19T14:51:16;24.60;77.00
2913;DHT22;1466;48.778;9.166;2023-09-19T14:53:44;24.70;76.90
2913;DHT22;1466;48.778;9.166;2023-09-19T14:56:10;24.80;76.90
2913;DHT22;1466;48.778;9.166;2023-09-19T14:58:37;24.90;77.50
2913;DHT22;1466;48.778;9.166;2023-09-19T15:01:11;24.90;76.30
2913;DHT22;1466;48.778;9.166;2023-09-19T15:03:38;24.90;76.20
2913;DHT22;1466;48.778;9.166;2023-09-19T15:06:11;24.70;76.30
2913;DHT22;1466;48.778;9.166;2023-09-19T15:08:40;24.70;76.30
2913;DHT22;1466;48.778;9.166;2023-09-19T15:11:11;24.60;76.60
2913;DHT22;1466;48.778;9.166;2023-09-19T15:13:38;24.50;76.40
2913;DHT22;1466;48.778;9.166;2023-09-19T15:16:05;24.50;76.70
2913;DHT22;1466;48.778;9.166;2023-09-19T15:18:35;24.60;76.80
2913;DHT22;1466;48.778;9.166;2023-09-19T15:21:03;24.50;76.30
2913;DHT22;1466;48.778;9.166;2023-09-19T15:23:33;24.50;76.40
2913;DHT22;1466;48.778;9.166;2023-09-19T15:26:00;24.50;76.60
2913;DHT22;1466;48.778;9.166;2023-09-19T15:28:27;24.50;76.80
2913;DHT22;1466;48.778;9.166;2023-09-19T15:31:01;24.50;76.10
2913;DHT22;1466;48.778;9.166;2023-09-19T15:33:27;24.40;75.70
2913;DHT22;1466;48.778;9.166;2023-09-19T15:38:31;24.50;76.00
2913;DHT22;1466;48.778;9.166;2023-09-19T15:40:59;24.40;75.60
2913;DHT22;1466;48.778;9.166;2023-09-19T15:43:25;24.40;75.80
2913;DHT22;1466;48.778;9.166;2023-09-19T15:45:51;24.30;75.50
2913;DHT22;1466;48.778;9.166;2023-09-19T15:48:17;24.30;76.00
2913;DHT22;1466;48.778;9.166;2023-09-19T15:50:43;24.30;76.60
2913;DHT22;1466;48.778;9.166;2023-09-19T15:53:10;24.30;76.80
2913;DHT22;1466;48.778;9.166;2023-09-19T15:55:40;24.30;77.30
2913;DHT22;1466;48.778;9.166;2023-09-19T15:58:07;24.30;77.40
2913;DHT22;1466;48.778;9.166;2023-09-19T16:00:33;24.40;77.50
2913;DHT22;1466;48.778;9.166;2023-09-19T16:03:02;24.40;77.60
2913;DHT22;1466;48.778;9.166;2023-09-19T16:05:28;24.50;77.80
2913;DHT22;1466;48.778;9.166;2023-09-19T16:07:54;24.50;77.60
2913;DHT22;1466;48.778;9.166;2023-09-19T16:10:19;24.50;77.70
2913;DHT22;1466;48.778;9.166;2023-09-19T16:12:46;24.50;77.30
2913;DHT22;1466;48.778;9.166;2023-09-19T16:15:11;24.40;77.50
2913;DHT22;1466;48.778;9.166;2023-09-19T16:17:38;24.40;77.60
2913;DHT22;1466;48.778;9.166;2023-09-19T16:20:05;24.40;77.80
2913;DHT22;1466;48.778;9.166;2023-09-19T16:22:36;24.30;77.70
2913;DHT22;1466;48.778;9.166;2023-09-19T16:25:02;24.30;77.90
2913;DHT22;1466;48.778;9.166;2023-09-19T16:27:28;24.20;78.00
2913;DHT22;1466;48.778;9.166;2023-09-19T16:29:53;24.20;78.30
2913;DHT22;1466;48.778;9.166;2023-09-19T16:32:19;24.10;78.50
2913;DHT22;1466;48.778;9.166;2023-09-19T16:34:45;24.10;78.60
2913;DHT22;1466;48.778;9.166;2023-09-19T16:37:11;24.10;78.60
2913;DHT22;1466;48.778;9.166;2023-09-19T16:39:39;24.00;78.70
2913;DHT22;1466;48.778;9.166;2023-09-19T16:42:07;24.00;79.00
2913;DHT22;1466;48.778;9.166;2023-09-19T16:44:33;24.00;79.20
2913;DHT22;1466;48.778;9.166;2023-09-19T16:46:59;24.00;79.40
2913;DHT22;1466;48.778;9.166;2023-09-19T16:49:25;23.90;79.30
2913;DHT22;1466;48.778;9.166;2023-09-19T16:51:51;23.90;79.50
2913;DHT22;1466;48.778;9.166;2023-09-19T16:54:17;23.90;79.70
2913;DHT22;1466;48.778;9.166;2023-09-19T16:56:42;23.80;79.90
2913;DHT22;1466;48.778;9.166;2023-09-19T16:59:08;23.80;80.00
2913;DHT22;1466;48.778;9.166;2023-09-19T17:01:35;23.80;80.10